createdAt,value
2019-03-15T00:00:22.997Z,87.19
2019-03-15T00:01:23.012Z,87.60
2019-03-15T00:02:22.977Z,87.60
2019-03-15T00:03:22.969Z,87.29
2019-03-15T00:04:22.987Z,87.19
2019-03-15T00:05:22.944Z,87.29
2019-03-15T00:06:23.001Z,87.19
2019-03-15T00:07:22.974Z,86.88
2019-03-15T00:08:22.913Z,86.57
2019-03-15T00:09:22.902Z,86.88
2019-03-15T00:10:22.894Z,86.88
2019-03-15T00:11:22.881Z,86.68
2019-03-15T00:12:22.896Z,86.57
2019-03-15T00:13:22.892Z,85.85
2019-03-15T00:14:22.849Z,86.05
2019-03-15T00:15:22.838Z,85.75
2019-03-15T00:16:22.831Z,86.05
2019-03-15T00:17:22.957Z,85.54
2019-03-15T00:18:22.813Z,85.27
2019-03-15T00:19:22.795Z,85.13
2019-03-15T00:20:22.787Z,85.13
2019-03-15T00:21:22.776Z,85.33
2019-03-15T00:22:22.766Z,85.23
2019-03-15T00:23:22.789Z,85.17
2019-03-15T00:24:22.745Z,84.86
2019-03-15T00:25:22.732Z,85.02
2019-03-15T00:26:22.726Z,85.17
2019-03-15T00:27:22.713Z,84.81
2019-03-15T00:28:22.738Z,84.72
2019-03-15T00:29:22.691Z,84.86
2019-03-15T00:30:22.682Z,84.81
2019-03-15T00:31:22.672Z,84.72
2019-03-15T00:32:22.660Z,85.13
2019-03-15T00:33:22.652Z,84.92
2019-03-15T00:34:22.662Z,84.51
2019-03-15T00:35:22.664Z,84.41
2019-03-15T00:36:22.618Z,84.72
2019-03-15T00:37:22.611Z,84.81
2019-03-15T00:38:22.596Z,84.92
2019-03-15T00:39:22.623Z,84.72
2019-03-15T00:40:22.575Z,84.92
2019-03-15T00:41:22.564Z,83.99
2019-03-15T00:42:22.557Z,84.51
2019-03-15T00:43:22.543Z,83.68
2019-03-15T00:44:22.537Z,84.81
2019-03-15T00:45:22.548Z,84.92
2019-03-15T00:46:22.509Z,84.92
2019-03-15T00:47:22.500Z,85.33
2019-03-15T00:48:22.491Z,84.81
2019-03-15T00:49:22.479Z,85.17
2019-03-15T00:50:22.507Z,85.06
2019-03-15T00:51:22.469Z,85.23
2019-03-15T00:52:22.447Z,85.13
2019-03-15T00:53:22.445Z,84.92
2019-03-15T00:54:22.430Z,85.02
2019-03-15T00:55:22.416Z,84.92
2019-03-15T00:56:22.429Z,84.72
2019-03-15T00:57:22.395Z,85.23
2019-03-15T00:58:22.385Z,84.81
2019-03-15T00:59:22.389Z,84.41
2019-03-15T01:00:22.369Z,84.81
2019-03-15T01:01:22.394Z,84.72
2019-03-15T01:02:22.340Z,84.30
2019-03-15T01:03:22.330Z,83.78
2019-03-15T01:04:22.320Z,83.83
2019-03-15T01:05:22.308Z,84.65
2019-03-15T01:06:22.296Z,84.09
2019-03-15T01:07:22.314Z,84.41
2019-03-15T01:08:22.277Z,84.41
2019-03-15T01:09:22.265Z,84.61
2019-03-15T01:10:22.256Z,84.51
2019-03-15T01:11:22.246Z,84.61
2019-03-15T01:12:22.268Z,84.20
2019-03-15T01:13:22.221Z,83.27
2019-03-15T01:14:22.214Z,83.37
2019-03-15T01:15:22.200Z,83.58
2019-03-15T01:16:22.189Z,83.78
2019-03-15T01:17:22.179Z,83.68
2019-03-15T01:18:22.194Z,83.37
2019-03-15T01:19:22.158Z,84.09
2019-03-15T01:20:22.150Z,83.06
2019-03-15T01:21:22.137Z,83.27
2019-03-15T01:22:22.129Z,83.58
2019-03-15T01:23:22.156Z,83.37
2019-03-15T01:24:22.105Z,83.48
2019-03-15T01:25:22.093Z,84.41
2019-03-15T01:26:22.085Z,83.78
2019-03-15T01:27:22.076Z,83.68
2019-03-15T01:28:22.104Z,83.37
2019-03-15T01:29:22.055Z,83.68
2019-03-15T01:30:22.044Z,84.81
2019-03-15T01:31:22.032Z,83.48
2019-03-15T01:32:22.020Z,83.89
2019-03-15T01:33:22.009Z,83.89
2019-03-15T01:34:22.023Z,84.09
2019-03-15T01:35:21.987Z,84.81
2019-03-15T01:36:21.977Z,84.20
2019-03-15T01:37:21.968Z,84.30
2019-03-15T01:38:21.959Z,83.78
2019-03-15T01:39:21.988Z,84.61
2019-03-15T01:40:21.935Z,84.41
2019-03-15T01:41:21.929Z,84.61
2019-03-15T01:42:22.282Z,84.30
2019-03-15T01:43:21.899Z,84.30
2019-03-15T01:44:21.893Z,84.20
2019-03-15T01:45:21.902Z,84.92
2019-03-15T01:46:21.868Z,84.51
2019-03-15T01:47:21.857Z,84.61
2019-03-15T01:48:21.846Z,84.30
2019-03-15T01:49:21.841Z,84.41
2019-03-15T01:50:21.867Z,84.20
2019-03-15T01:51:21.819Z,84.61
2019-03-15T01:52:21.805Z,84.72
2019-03-15T01:53:21.794Z,84.30
2019-03-15T01:54:21.780Z,84.51
2019-03-15T01:55:21.775Z,84.81
2019-03-15T01:56:21.782Z,85.02
2019-03-15T01:57:21.752Z,85.02
2019-03-15T01:58:21.738Z,84.81
2019-03-15T01:59:21.746Z,84.81
2019-03-15T02:00:21.713Z,85.23
2019-03-15T02:01:21.741Z,85.44
2019-03-15T02:02:22.333Z,85.54
2019-03-15T02:03:21.687Z,85.33
2019-03-15T02:04:21.672Z,86.16
2019-03-15T02:05:21.664Z,86.47
2019-03-15T02:06:21.651Z,86.47
2019-03-15T02:07:21.669Z,86.88
2019-03-15T02:08:21.630Z,86.88
2019-03-15T02:09:21.623Z,87.19
2019-03-15T02:10:22.230Z,87.19
2019-03-15T02:11:21.599Z,87.19
2019-03-15T02:12:21.978Z,87.34
2019-03-15T02:13:21.578Z,87.40
2019-03-15T02:14:21.571Z,87.34
2019-03-15T02:15:21.553Z,87.13
2019-03-15T02:16:21.544Z,87.23
2019-03-15T02:17:21.536Z,87.44
2019-03-15T02:18:21.547Z,87.19
2019-03-15T02:19:21.508Z,86.78
2019-03-15T02:20:21.506Z,87.29
2019-03-15T02:21:21.493Z,86.36
2019-03-15T02:22:21.483Z,86.61
2019-03-15T02:23:21.502Z,86.61
2019-03-15T02:24:21.460Z,86.57
2019-03-15T02:25:21.446Z,85.64
2019-03-15T02:26:21.435Z,86.16
2019-03-15T02:27:21.424Z,86.05
2019-03-15T02:28:21.417Z,85.33
2019-03-15T02:29:21.435Z,85.44
2019-03-15T02:30:21.540Z,85.44
2019-03-15T02:31:21.384Z,85.75
2019-03-15T02:32:21.373Z,85.33
2019-03-15T02:33:21.374Z,85.75
2019-03-15T02:34:21.390Z,85.23
2019-03-15T02:35:21.341Z,85.54
2019-03-15T02:36:21.336Z,84.81
2019-03-15T02:37:21.323Z,85.47
2019-03-15T02:38:21.318Z,85.44
2019-03-15T02:39:21.301Z,85.64
2019-03-15T02:40:21.315Z,85.44
2019-03-15T02:41:21.286Z,85.44
2019-03-15T02:42:21.271Z,85.54
2019-03-15T02:43:21.265Z,85.33
2019-03-15T02:44:21.248Z,85.13
2019-03-15T02:45:21.272Z,85.54
2019-03-15T02:46:21.230Z,85.54
2019-03-15T02:47:21.213Z,85.23
2019-03-15T02:48:21.233Z,85.64
2019-03-15T02:49:21.200Z,85.44
2019-03-15T02:50:21.183Z,85.64
2019-03-15T02:51:21.201Z,85.23
2019-03-15T02:52:21.161Z,85.44
2019-03-15T02:53:21.152Z,85.54
2019-03-15T02:54:21.140Z,85.13
2019-03-15T02:55:21.400Z,85.13
2019-03-15T02:56:21.156Z,84.61
2019-03-15T02:57:21.108Z,84.92
2019-03-15T02:58:21.100Z,84.72
2019-03-15T02:59:21.243Z,84.30
2019-03-15T03:00:21.078Z,84.72
2019-03-15T03:01:21.074Z,83.89
2019-03-15T03:02:21.082Z,84.81
2019-03-15T03:03:21.045Z,84.20
2019-03-15T03:04:21.035Z,83.37
2019-03-15T03:05:21.023Z,83.37
2019-03-15T03:06:21.014Z,82.45
2019-03-15T03:07:21.286Z,83.27
2019-03-15T03:08:20.990Z,82.51
2019-03-15T03:09:20.980Z,82.30
2019-03-15T03:10:20.973Z,82.10
2019-03-15T03:11:20.960Z,81.27
2019-03-15T03:12:20.950Z,81.89
2019-03-15T03:13:20.965Z,81.68
2019-03-15T03:14:20.925Z,81.48
2019-03-15T03:15:20.916Z,81.68
2019-03-15T03:16:20.909Z,81.07
2019-03-15T03:17:20.899Z,80.65
2019-03-15T03:18:20.926Z,80.65
2019-03-15T03:19:20.892Z,80.34
2019-03-15T03:20:21.143Z,80.24
2019-03-15T03:21:20.872Z,80.04
2019-03-15T03:22:20.845Z,80.55
2019-03-15T03:23:20.831Z,80.76
2019-03-15T03:24:20.846Z,81.89
2019-03-15T03:25:20.806Z,82.10
2019-03-15T03:26:20.803Z,82.82
2019-03-15T03:27:20.784Z,83.13
2019-03-15T03:28:20.783Z,84.36
2019-03-15T03:29:20.799Z,84.67
2019-03-15T03:30:20.839Z,84.78
2019-03-15T03:31:20.851Z,85.02
2019-03-15T03:32:20.731Z,85.19
2019-03-15T03:33:20.720Z,85.64
2019-03-15T03:34:20.715Z,86.57
2019-03-15T03:35:20.732Z,87.29
2019-03-15T03:36:20.686Z,87.92
2019-03-15T03:37:20.680Z,88.53
2019-03-15T03:38:20.664Z,88.37
2019-03-15T03:39:20.652Z,89.09
2019-03-15T03:40:21.257Z,89.19
2019-03-15T03:41:20.641Z,89.92
2019-03-15T03:42:20.633Z,91.05
2019-03-15T03:43:20.614Z,91.50
2019-03-15T03:44:20.602Z,91.40
2019-03-15T03:45:23.218Z,91.09
2019-03-15T03:46:20.603Z,91.40
2019-03-15T03:47:20.571Z,91.71
2019-03-15T03:48:20.560Z,91.61
2019-03-15T03:49:20.548Z,91.50
2019-03-15T03:50:27.570Z,91.82
2019-03-15T03:51:20.565Z,91.92
2019-03-15T03:52:20.521Z,91.71
2019-03-15T03:53:20.505Z,91.67
2019-03-15T03:54:20.493Z,91.92
2019-03-15T03:55:20.484Z,91.61
2019-03-15T03:56:20.475Z,91.88
2019-03-15T03:57:20.487Z,91.71
2019-03-15T03:58:20.455Z,91.71
2019-03-15T03:59:20.442Z,91.61
2019-03-15T04:00:20.432Z,91.67
2019-03-15T04:01:20.421Z,91.40
2019-03-15T04:02:20.445Z,91.98
2019-03-15T04:03:20.399Z,91.82
2019-03-15T04:04:20.392Z,91.77
2019-03-15T04:05:20.380Z,91.16
2019-03-15T04:06:20.367Z,91.05
2019-03-15T04:07:20.357Z,91.56
2019-03-15T04:08:20.376Z,89.92
2019-03-15T04:09:20.337Z,89.29
2019-03-15T04:10:20.327Z,89.40
2019-03-15T04:11:20.320Z,89.40
2019-03-15T04:12:20.304Z,89.61
2019-03-15T04:13:20.332Z,88.68
2019-03-15T04:14:20.284Z,88.98
2019-03-15T04:15:20.272Z,89.19
2019-03-15T04:16:20.270Z,88.26
2019-03-15T04:17:20.252Z,88.26
2019-03-15T04:18:20.243Z,88.47
2019-03-15T04:19:20.256Z,88.26
2019-03-15T04:20:20.221Z,87.95
2019-03-15T04:21:20.210Z,87.65
2019-03-15T04:22:20.199Z,87.71
2019-03-15T04:23:20.189Z,87.95
2019-03-15T04:24:20.216Z,87.54
2019-03-15T04:25:20.168Z,87.65
2019-03-15T04:26:20.158Z,87.44
2019-03-15T04:27:20.146Z,87.44
2019-03-15T04:28:20.138Z,87.92
2019-03-15T04:29:20.126Z,87.71
2019-03-15T04:30:20.145Z,87.44
2019-03-15T04:31:20.107Z,87.65
2019-03-15T04:32:20.095Z,86.61
2019-03-15T04:33:20.084Z,86.92
2019-03-15T04:34:20.079Z,86.47
2019-03-15T04:35:20.100Z,85.54
2019-03-15T04:36:20.052Z,85.85
2019-03-15T04:37:22.749Z,85.13
2019-03-15T04:38:20.031Z,85.54
2019-03-15T04:39:20.022Z,85.23
2019-03-15T04:40:20.009Z,84.92
2019-03-15T04:41:20.027Z,84.72
2019-03-15T04:42:19.989Z,84.81
2019-03-15T04:43:19.983Z,84.81
2019-03-15T04:44:19.967Z,84.81
2019-03-15T04:45:19.962Z,84.92
2019-03-15T04:46:19.983Z,84.41
2019-03-15T04:47:19.937Z,84.30
2019-03-15T04:48:19.928Z,84.72
2019-03-15T04:49:19.922Z,85.23
2019-03-15T04:50:19.903Z,84.92
2019-03-15T04:51:19.911Z,85.02
2019-03-15T04:52:19.912Z,85.23
2019-03-15T04:53:19.878Z,85.54
2019-03-15T04:54:19.862Z,85.54
2019-03-15T04:55:19.854Z,85.23
2019-03-15T04:56:19.840Z,85.37
2019-03-15T04:57:19.872Z,85.47
2019-03-15T04:58:19.841Z,85.44
2019-03-15T04:59:19.811Z,85.27
2019-03-15T05:00:19.804Z,85.68
2019-03-15T05:01:19.789Z,85.99
2019-03-15T05:02:19.777Z,85.27
2019-03-15T05:03:19.795Z,85.99
2019-03-15T05:04:19.759Z,85.37
2019-03-15T05:05:19.746Z,85.89
2019-03-15T05:06:19.737Z,85.99
2019-03-15T05:07:19.726Z,86.10
2019-03-15T05:08:19.767Z,85.99
2019-03-15T05:09:19.704Z,86.20
2019-03-15T05:10:19.694Z,85.99
2019-03-15T05:11:19.684Z,86.61
2019-03-15T05:12:19.673Z,86.20
2019-03-15T05:13:19.663Z,85.99
2019-03-15T05:14:19.673Z,86.10
2019-03-15T05:15:19.641Z,86.51
2019-03-15T05:16:19.629Z,86.51
2019-03-15T05:17:19.620Z,86.71
2019-03-15T05:18:19.609Z,86.20
2019-03-15T05:19:19.634Z,86.41
2019-03-15T05:20:21.181Z,86.51
2019-03-15T05:21:19.575Z,86.92
2019-03-15T05:22:19.568Z,87.34
2019-03-15T05:23:19.559Z,87.13
2019-03-15T05:24:19.547Z,87.34
2019-03-15T05:25:19.567Z,86.82
2019-03-15T05:26:19.525Z,87.02
2019-03-15T05:27:19.515Z,87.23
2019-03-15T05:28:19.508Z,87.65
2019-03-15T05:29:19.494Z,87.23
2019-03-15T05:30:19.520Z,87.44
2019-03-15T05:31:19.476Z,87.34
2019-03-15T05:32:19.463Z,87.54
2019-03-15T05:33:19.450Z,87.34
2019-03-15T05:34:19.440Z,86.92
2019-03-15T05:35:19.436Z,86.82
2019-03-15T05:36:19.447Z,86.92
2019-03-15T05:37:19.413Z,86.71
2019-03-15T05:38:19.399Z,86.36
2019-03-15T05:39:19.388Z,86.10
2019-03-15T05:40:19.378Z,86.05
2019-03-15T05:41:19.417Z,85.78
2019-03-15T05:42:19.356Z,85.58
2019-03-15T05:43:19.353Z,85.54
2019-03-15T05:44:19.338Z,85.17
2019-03-15T05:45:19.322Z,85.23
2019-03-15T05:46:19.313Z,84.92
2019-03-15T05:47:19.326Z,85.02
2019-03-15T05:48:19.293Z,85.23
2019-03-15T05:49:19.281Z,84.72
2019-03-15T05:50:19.271Z,84.81
2019-03-15T05:51:19.261Z,84.81
2019-03-15T05:52:19.288Z,85.64
2019-03-15T05:53:19.240Z,85.13
2019-03-15T05:54:19.230Z,85.06
2019-03-15T05:55:19.218Z,84.81
2019-03-15T05:56:19.206Z,85.13
2019-03-15T05:57:19.196Z,84.92
2019-03-15T05:58:21.749Z,85.02
2019-03-15T05:59:19.174Z,84.81
2019-03-15T06:00:19.199Z,84.92
2019-03-15T06:01:19.155Z,84.81
2019-03-15T06:02:19.154Z,84.51
2019-03-15T06:03:19.170Z,84.81
2019-03-15T06:04:19.128Z,84.92
2019-03-15T06:05:19.121Z,84.41
2019-03-15T06:06:19.104Z,85.23
2019-03-15T06:07:19.090Z,85.64
2019-03-15T06:08:19.095Z,86.16
2019-03-15T06:09:19.096Z,86.47
2019-03-15T06:10:19.062Z,87.08
2019-03-15T06:11:19.049Z,87.29
2019-03-15T06:12:19.042Z,87.54
2019-03-15T06:13:19.033Z,87.60
2019-03-15T06:14:19.057Z,87.40
2019-03-15T06:15:19.010Z,87.60
2019-03-15T06:16:18.997Z,87.71
2019-03-15T06:17:18.987Z,87.92
2019-03-15T06:18:18.976Z,87.95
2019-03-15T06:19:18.966Z,87.74
2019-03-15T06:20:18.979Z,87.81
2019-03-15T06:21:18.950Z,87.92
2019-03-15T06:22:18.932Z,87.71
2019-03-15T06:23:18.924Z,87.71
2019-03-15T06:24:18.915Z,87.60
2019-03-15T06:25:19.057Z,87.29
2019-03-15T06:26:18.894Z,86.36
2019-03-15T06:27:18.880Z,87.19
2019-03-15T06:28:18.873Z,86.98
2019-03-15T06:29:18.861Z,86.36
2019-03-15T06:30:18.849Z,86.88
2019-03-15T06:31:18.864Z,86.57
2019-03-15T06:32:18.827Z,86.68
2019-03-15T06:33:18.816Z,86.05
2019-03-15T06:34:18.805Z,85.30
2019-03-15T06:35:18.805Z,85.19
2019-03-15T06:36:18.821Z,85.81
2019-03-15T06:37:18.776Z,84.67
2019-03-15T06:38:18.764Z,84.67
2019-03-15T06:39:18.750Z,84.78
2019-03-15T06:40:18.740Z,84.88
2019-03-15T06:41:18.735Z,84.67
2019-03-15T06:42:18.748Z,84.47
2019-03-15T06:43:18.707Z,84.64
2019-03-15T06:44:18.696Z,84.74
2019-03-15T06:45:18.710Z,84.36
2019-03-15T06:46:18.680Z,84.74
2019-03-15T06:47:18.699Z,84.74
2019-03-15T06:48:18.651Z,84.88
2019-03-15T06:49:18.640Z,84.74
2019-03-15T06:50:18.637Z,84.33
2019-03-15T06:51:18.624Z,84.12
2019-03-15T06:52:18.691Z,84.36
2019-03-15T06:53:19.738Z,84.57
2019-03-15T06:54:19.243Z,84.88
2019-03-15T06:55:19.273Z,84.36
2019-03-15T06:56:18.565Z,84.16
2019-03-15T06:57:18.555Z,83.75
2019-03-15T06:58:18.580Z,84.47
2019-03-15T06:59:18.535Z,84.74
2019-03-15T07:00:18.523Z,84.06
2019-03-15T07:01:18.510Z,84.47
2019-03-15T07:02:19.583Z,84.47
2019-03-15T07:03:18.487Z,84.33
2019-03-15T07:04:18.502Z,84.67
2019-03-15T07:05:18.466Z,83.61
2019-03-15T07:06:18.462Z,83.29
2019-03-15T07:07:18.446Z,83.23
2019-03-15T07:08:18.432Z,82.57
2019-03-15T07:09:18.458Z,82.89
2019-03-15T07:10:18.425Z,82.89
2019-03-15T07:11:18.405Z,82.68
2019-03-15T07:12:18.391Z,82.68
2019-03-15T07:13:18.379Z,81.65
2019-03-15T07:14:18.370Z,81.65
2019-03-15T07:15:18.383Z,81.13
2019-03-15T07:16:18.347Z,81.40
2019-03-15T07:17:18.344Z,80.79
2019-03-15T07:18:18.918Z,81.30
2019-03-15T07:19:27.418Z,80.79
2019-03-15T07:20:19.341Z,81.09
2019-03-15T07:21:18.300Z,80.99
2019-03-15T07:22:19.966Z,80.68
2019-03-15T07:23:18.272Z,79.55
2019-03-15T07:24:24.932Z,79.55
2019-03-15T07:25:19.249Z,79.65
2019-03-15T07:26:18.266Z,79.14
2019-03-15T07:27:18.234Z,79.61
2019-03-15T07:28:18.226Z,78.72
2019-03-15T07:29:19.099Z,78.28
2019-03-15T07:30:18.210Z,78.62
2019-03-15T07:31:18.227Z,78.17
2019-03-15T07:32:18.185Z,78.17
2019-03-15T07:33:18.189Z,77.86
2019-03-15T07:34:18.161Z,77.42
2019-03-15T07:35:18.150Z,77.62
2019-03-15T07:36:18.135Z,77.11
2019-03-15T07:37:18.152Z,77.31
2019-03-15T07:38:18.113Z,77.11
2019-03-15T07:39:18.103Z,76.59
2019-03-15T07:40:18.363Z,75.97
2019-03-15T07:41:18.098Z,76.59
2019-03-15T07:42:18.109Z,76.18
2019-03-15T07:43:20.095Z,75.32
2019-03-15T07:44:18.053Z,75.94
2019-03-15T07:45:18.152Z,74.19
2019-03-15T07:46:18.075Z,75.32
2019-03-15T07:47:18.019Z,73.98
2019-03-15T07:48:22.872Z,74.19
2019-03-15T07:49:18.995Z,74.40
2019-03-15T07:50:18.004Z,74.26
2019-03-15T07:51:17.979Z,74.50
2019-03-15T07:52:18.095Z,74.26
2019-03-15T07:53:17.991Z,73.95
2019-03-15T07:54:17.950Z,73.54
2019-03-15T07:55:17.934Z,73.54
2019-03-15T07:56:17.927Z,73.95
2019-03-15T07:57:17.913Z,73.74
2019-03-15T07:58:17.909Z,73.85
2019-03-15T07:59:17.918Z,73.64
2019-03-15T08:00:17.881Z,74.05
2019-03-15T08:01:17.872Z,72.72
2019-03-15T08:02:17.857Z,73.33
2019-03-15T08:03:17.851Z,72.72
2019-03-15T08:04:17.905Z,72.89
2019-03-15T08:05:17.825Z,72.99
2019-03-15T08:06:17.815Z,73.02
2019-03-15T08:07:20.113Z,72.61
2019-03-15T08:08:17.792Z,71.34
2019-03-15T08:09:17.780Z,72.20
2019-03-15T08:10:17.803Z,72.61
2019-03-15T08:11:17.782Z,72.61
2019-03-15T08:12:17.751Z,72.61
2019-03-15T08:13:17.737Z,72.81
2019-03-15T08:14:17.727Z,72.30
2019-03-15T08:15:17.751Z,72.20
2019-03-15T08:16:17.705Z,72.81
2019-03-15T08:17:17.698Z,72.81
2019-03-15T08:18:17.691Z,72.61
2019-03-15T08:19:17.676Z,72.61
2019-03-15T08:20:17.663Z,72.51
2019-03-15T08:21:17.677Z,72.92
2019-03-15T08:22:17.643Z,72.81
2019-03-15T08:23:17.629Z,72.92
2019-03-15T08:24:17.619Z,72.81
2019-03-15T08:25:17.612Z,73.02
2019-03-15T08:26:17.641Z,73.23
2019-03-15T08:27:17.586Z,73.74
2019-03-15T08:28:17.576Z,73.95
2019-03-15T08:29:17.568Z,73.74
2019-03-15T08:30:17.554Z,74.05
2019-03-15T08:31:17.543Z,73.95
2019-03-15T08:32:17.560Z,74.26
2019-03-15T08:33:17.525Z,74.12
2019-03-15T08:34:17.509Z,74.12
2019-03-15T08:35:17.504Z,73.81
2019-03-15T08:36:20.140Z,73.91
2019-03-15T08:37:17.520Z,73.64
2019-03-15T08:38:17.466Z,73.81
2019-03-15T08:39:17.458Z,74.02
2019-03-15T08:40:17.447Z,74.02
2019-03-15T08:41:17.439Z,74.33
2019-03-15T08:42:17.423Z,74.53
2019-03-15T08:43:17.435Z,73.98
2019-03-15T08:44:17.402Z,73.78
2019-03-15T08:45:17.389Z,72.44
2019-03-15T08:46:17.377Z,72.96
2019-03-15T08:47:17.368Z,73.36
2019-03-15T08:48:17.394Z,73.61
2019-03-15T08:49:17.345Z,73.47
2019-03-15T08:50:17.335Z,73.98
2019-03-15T08:51:17.325Z,73.78
2019-03-15T08:52:17.317Z,73.47
2019-03-15T08:53:17.305Z,73.50
2019-03-15T08:54:17.318Z,73.36
2019-03-15T08:55:17.283Z,73.36
2019-03-15T08:56:17.275Z,73.68
2019-03-15T08:57:17.262Z,73.57
2019-03-15T08:58:21.983Z,73.81
2019-03-15T08:59:18.275Z,73.47
2019-03-15T09:00:17.231Z,73.36
2019-03-15T09:01:17.218Z,72.75
2019-03-15T09:02:17.209Z,72.75
2019-03-15T09:03:27.264Z,72.85
2019-03-15T09:04:21.287Z,72.96
2019-03-15T09:05:17.208Z,73.06
2019-03-15T09:06:17.165Z,72.92
2019-03-15T09:07:17.154Z,72.92
2019-03-15T09:08:17.148Z,73.33
2019-03-15T09:09:17.134Z,72.82
2019-03-15T09:10:23.332Z,72.17
2019-03-15T09:11:18.109Z,72.38
2019-03-15T09:12:17.099Z,72.27
2019-03-15T09:13:17.092Z,72.89
2019-03-15T09:14:17.079Z,72.51
2019-03-15T09:15:17.072Z,72.92
2019-03-15T09:16:17.084Z,72.72
2019-03-15T09:17:19.856Z,72.92
2019-03-15T09:18:17.037Z,72.72
2019-03-15T09:19:17.024Z,72.89
2019-03-15T09:20:17.014Z,72.58
2019-03-15T09:21:17.041Z,72.17
2019-03-15T09:22:16.992Z,71.72
2019-03-15T09:23:16.983Z,71.31
2019-03-15T09:24:16.971Z,71.42
2019-03-15T09:25:20.459Z,71.18
2019-03-15T09:26:16.948Z,70.36
2019-03-15T09:27:16.967Z,69.71
2019-03-15T09:28:16.927Z,69.61
2019-03-15T09:29:16.918Z,69.61
2019-03-15T09:30:24.475Z,69.81
2019-03-15T09:31:17.894Z,69.92
2019-03-15T09:32:16.920Z,69.81
2019-03-15T09:33:16.873Z,69.81
2019-03-15T09:34:16.868Z,69.81
2019-03-15T09:35:16.853Z,69.84
2019-03-15T09:36:16.842Z,69.95
2019-03-15T09:37:16.839Z,70.18
2019-03-15T09:38:16.845Z,70.15
2019-03-15T09:39:16.809Z,71.28
2019-03-15T09:40:16.803Z,70.26
2019-03-15T09:41:30.612Z,69.74
2019-03-15T09:42:17.775Z,70.05
2019-03-15T09:43:16.791Z,70.12
2019-03-15T09:44:16.755Z,69.74
2019-03-15T09:45:16.748Z,69.51
2019-03-15T09:46:16.736Z,69.40
2019-03-15T09:47:16.724Z,69.51
2019-03-15T09:48:16.794Z,69.51
2019-03-15T09:49:16.706Z,69.30
2019-03-15T09:50:26.449Z,69.13
2019-03-15T09:52:07.559Z,69.10
2019-03-15T09:53:07.586Z,68.92
2019-03-15T09:54:07.541Z,69.10
2019-03-15T09:55:07.528Z,68.89
2019-03-15T09:56:07.516Z,69.33
2019-03-15T09:57:07.504Z,69.20
2019-03-15T09:58:07.496Z,69.30
2019-03-15T09:59:07.511Z,69.30
2019-03-15T10:00:07.474Z,68.99
2019-03-15T10:01:07.864Z,68.99
2019-03-15T10:02:07.988Z,68.24
2019-03-15T10:03:21.250Z,68.45
2019-03-15T10:04:08.456Z,67.11
2019-03-15T10:05:11.106Z,67.32
2019-03-15T10:06:14.798Z,67.22
2019-03-15T10:07:08.422Z,67.19
2019-03-15T10:08:07.387Z,66.37
2019-03-15T10:09:07.423Z,66.67
2019-03-15T10:10:13.470Z,66.44
2019-03-15T10:11:08.358Z,66.78
2019-03-15T10:12:07.345Z,66.27
2019-03-15T10:13:07.335Z,64.94
2019-03-15T10:14:07.322Z,65.62
2019-03-15T10:15:08.112Z,65.55
2019-03-15T10:16:07.299Z,65.65
2019-03-15T10:17:07.289Z,65.52
2019-03-15T10:18:07.280Z,66.54
2019-03-15T10:19:07.270Z,65.72
2019-03-15T10:20:07.294Z,65.75
2019-03-15T10:21:09.222Z,65.86
2019-03-15T10:22:07.231Z,66.24
2019-03-15T10:23:07.224Z,65.69
2019-03-15T10:24:07.211Z,65.18
2019-03-15T10:25:07.198Z,64.95
2019-03-15T10:26:07.213Z,64.74
2019-03-15T10:27:07.176Z,64.64
2019-03-15T10:28:07.167Z,63.62
2019-03-15T10:29:15.239Z,63.03
2019-03-15T10:30:08.150Z,63.37
2019-03-15T10:31:07.254Z,64.60
2019-03-15T10:32:07.123Z,64.50
2019-03-15T10:33:07.112Z,64.60
2019-03-15T10:34:07.102Z,64.62
2019-03-15T10:35:07.093Z,65.04
2019-03-15T10:36:07.080Z,65.75
2019-03-15T10:37:07.093Z,65.75
2019-03-15T10:38:07.059Z,64.83
2019-03-15T10:39:07.044Z,65.04
2019-03-15T10:40:07.035Z,64.94
2019-03-15T10:41:07.026Z,65.24
2019-03-15T10:42:07.051Z,64.94
2019-03-15T10:43:07.001Z,66.40
2019-03-15T10:44:06.991Z,65.89
2019-03-15T10:45:06.982Z,65.68
2019-03-15T10:46:06.970Z,65.07
2019-03-15T10:47:06.956Z,64.86
2019-03-15T10:48:08.257Z,64.97
2019-03-15T10:49:06.936Z,64.86
2019-03-15T10:50:06.927Z,65.24
2019-03-15T10:51:06.911Z,65.04
2019-03-15T10:52:06.908Z,64.83
2019-03-15T10:53:06.916Z,65.24
2019-03-15T10:54:06.878Z,65.04
2019-03-15T10:55:06.868Z,65.24
2019-03-15T10:56:06.860Z,64.97
2019-03-15T10:57:06.846Z,65.17
2019-03-15T10:58:06.874Z,64.65
2019-03-15T10:59:06.823Z,65.27
2019-03-15T11:00:06.814Z,64.97
2019-03-15T11:01:06.800Z,65.27
2019-03-15T11:02:06.792Z,65.07
2019-03-15T11:03:06.780Z,64.56
2019-03-15T11:04:06.793Z,64.97
2019-03-15T11:05:06.759Z,64.86
2019-03-15T11:06:06.747Z,64.97
2019-03-15T11:07:06.736Z,65.07
2019-03-15T11:08:06.725Z,64.83
2019-03-15T11:09:06.751Z,63.57
2019-03-15T11:10:06.704Z,63.20
2019-03-15T11:11:06.701Z,63.09
2019-03-15T11:12:06.681Z,63.29
2019-03-15T11:13:06.752Z,62.68
2019-03-15T11:14:06.668Z,62.76
2019-03-15T11:15:06.801Z,62.24
2019-03-15T11:16:06.637Z,62.48
2019-03-15T11:17:06.626Z,62.68
2019-03-15T11:18:06.623Z,62.45
2019-03-15T11:19:06.607Z,62.55
2019-03-15T11:20:06.619Z,62.01
2019-03-15T11:21:06.582Z,60.93
2019-03-15T11:22:06.580Z,60.80
2019-03-15T11:23:06.558Z,60.28
2019-03-15T11:24:06.559Z,59.47
2019-03-15T11:25:06.574Z,58.86
2019-03-15T11:26:13.552Z,59.06
2019-03-15T11:27:07.515Z,59.19
2019-03-15T11:28:06.502Z,59.30
2019-03-15T11:29:06.493Z,59.53
2019-03-15T11:30:06.482Z,59.83
2019-03-15T11:31:06.498Z,59.96
2019-03-15T11:32:06.462Z,60.17
2019-03-15T11:33:06.449Z,60.17
2019-03-15T11:34:06.437Z,60.21
2019-03-15T11:35:06.428Z,59.91
2019-03-15T11:36:06.453Z,60.14
2019-03-15T11:37:06.409Z,60.44
2019-03-15T11:38:06.399Z,60.62
2019-03-15T11:39:06.383Z,60.52
2019-03-15T11:40:06.373Z,60.11
2019-03-15T11:41:06.363Z,60.62
2019-03-15T11:42:06.374Z,59.80
2019-03-15T11:43:06.339Z,60.62
2019-03-15T11:44:06.329Z,60.55
2019-03-15T11:45:06.322Z,60.72
2019-03-15T11:46:06.308Z,60.69
2019-03-15T11:47:06.382Z,59.57
2019-03-15T11:48:08.753Z,59.72
2019-03-15T11:49:06.272Z,57.96
2019-03-15T11:50:06.320Z,55.99
2019-03-15T11:51:06.253Z,56.71
2019-03-15T11:52:06.242Z,56.40
2019-03-15T11:53:06.260Z,56.40
2019-03-15T11:54:06.222Z,56.24
2019-03-15T11:55:06.209Z,55.53
2019-03-15T11:56:06.198Z,56.27
2019-03-15T11:57:06.189Z,55.84
2019-03-15T11:58:06.203Z,55.74
2019-03-15T11:59:06.166Z,56.10
2019-03-15T12:00:06.183Z,57.12
2019-03-15T12:01:06.147Z,56.91
2019-03-15T12:02:06.132Z,57.21
2019-03-15T12:03:06.157Z,57.65
2019-03-15T12:04:06.112Z,57.60
2019-03-15T12:05:06.100Z,59.34
2019-03-15T12:06:06.089Z,59.03
2019-03-15T12:07:06.081Z,59.14
2019-03-15T12:08:06.069Z,59.34
2019-03-15T12:09:06.082Z,58.65
2019-03-15T12:10:06.046Z,59.37
2019-03-15T12:11:06.054Z,59.57
2019-03-15T12:12:06.025Z,60.31
2019-03-15T12:13:06.015Z,60.11
2019-03-15T12:14:06.043Z,60.21
2019-03-15T12:15:05.992Z,60.08
2019-03-15T12:16:05.985Z,59.80
2019-03-15T12:17:05.980Z,59.78
2019-03-15T12:18:08.397Z,59.39
2019-03-15T12:19:05.948Z,59.83
2019-03-15T12:20:05.964Z,60.85
2019-03-15T12:21:05.926Z,60.35
2019-03-15T12:22:06.791Z,60.72
2019-03-15T12:23:05.907Z,60.55
2019-03-15T12:24:05.893Z,60.65
2019-03-15T12:25:05.906Z,61.40
2019-03-15T12:26:05.870Z,62.52
2019-03-15T12:27:05.862Z,63.17
2019-03-15T12:28:05.850Z,63.68
2019-03-15T12:29:05.838Z,65.11
2019-03-15T12:30:05.865Z,65.11
2019-03-15T12:31:05.816Z,64.80
2019-03-15T12:32:05.811Z,65.21
2019-03-15T12:33:05.795Z,65.11
2019-03-15T12:34:05.782Z,65.11
2019-03-15T12:35:05.772Z,65.21
2019-03-15T12:36:05.789Z,65.62
2019-03-15T12:37:05.755Z,66.34
2019-03-15T12:38:05.740Z,66.78
2019-03-15T12:39:05.731Z,66.78
2019-03-15T12:40:05.718Z,67.19
2019-03-15T12:41:05.745Z,67.29
2019-03-15T12:42:05.697Z,67.08
2019-03-15T12:43:05.685Z,66.81
2019-03-15T12:44:05.677Z,67.46
2019-03-15T12:45:05.670Z,67.43
2019-03-15T12:46:05.651Z,67.11
2019-03-15T12:47:06.348Z,67.02
2019-03-15T12:48:05.628Z,66.60
2019-03-15T12:49:05.622Z,67.02
2019-03-15T12:50:05.605Z,67.32
2019-03-15T12:51:05.595Z,66.98
2019-03-15T12:52:05.609Z,66.37
2019-03-15T12:53:05.572Z,66.13